createdAt,value
2023-03-12T00:09:09.599Z,0.20
2023-03-12T00:19:30.725Z,0.17
2023-03-12T00:29:52.372Z,0.14
2023-03-12T00:40:13.690Z,0.09
2023-03-12T00:50:34.861Z,0.07
2023-03-12T01:00:55.849Z,0.03
2023-03-12T01:11:19.310Z,-0.05
2023-03-12T01:21:40.316Z,-0.08
2023-03-12T01:32:01.301Z,-0.05
2023-03-12T01:42:22.839Z,-0.12
2023-03-12T01:52:44.267Z,-0.17
2023-03-12T02:03:08.121Z,-0.20
2023-03-12T02:13:30.747Z,-0.25
2023-03-12T02:24:03.607Z,-0.28
2023-03-12T02:34:26.836Z,-0.30
2023-03-12T02:44:48.071Z,-0.31
2023-03-12T02:55:11.100Z,-0.36
2023-03-12T03:05:33.189Z,-0.42
2023-03-12T03:15:54.844Z,-0.44
2023-03-12T03:26:19.226Z,-0.45
2023-03-12T03:36:41.170Z,-0.50
2023-03-12T03:47:07.179Z,-0.54
2023-03-12T03:57:28.613Z,-0.57
2023-03-12T04:07:52.737Z,-0.57
2023-03-12T04:18:16.694Z,-0.62
2023-03-12T04:28:39.203Z,-0.65
2023-03-12T04:39:02.220Z,-0.67
2023-03-12T04:49:27.805Z,-0.70
2023-03-12T04:59:49.541Z,-0.76
2023-03-12T05:10:11.635Z,-0.82
2023-03-12T05:21:02.197Z,-0.82
2023-03-12T05:31:24.495Z,-0.84
2023-03-12T05:41:46.133Z,-0.91
2023-03-12T05:52:12.266Z,-0.92
2023-03-12T06:02:33.886Z,-0.95
2023-03-12T06:12:55.450Z,-0.92
2023-03-12T06:23:16.923Z,-0.92
2023-03-12T06:33:38.568Z,-0.94
2023-03-12T06:44:01.028Z,-0.90
2023-03-12T06:54:22.216Z,-0.90
2023-03-12T07:04:43.215Z,-0.86
2023-03-12T07:15:05.446Z,-0.78
2023-03-12T07:25:26.811Z,-0.63
2023-03-12T07:35:51.450Z,-0.60
2023-03-12T07:46:13.497Z,-0.49
2023-03-12T07:56:36.115Z,-0.39
2023-03-12T08:06:57.220Z,-0.34
2023-03-12T08:17:18.525Z,-0.29
2023-03-12T08:27:39.647Z,-0.14
2023-03-12T08:38:01.371Z,0.00
2023-03-12T08:48:22.794Z,0.09
2023-03-12T08:58:43.873Z,0.27
2023-03-12T09:09:06.014Z,0.44
2023-03-12T09:19:26.992Z,0.68
2023-03-12T09:29:59.366Z,0.90
2023-03-12T09:40:25.057Z,1.10
2023-03-12T09:50:48.989Z,1.29
2023-03-12T10:01:19.545Z,1.45
2023-03-12T10:12:14.033Z,1.67
2023-03-12T10:22:52.844Z,1.79
2023-03-12T10:33:16.505Z,1.92
2023-03-12T10:43:38.112Z,2.04
2023-03-12T10:53:59.524Z,2.13
2023-03-12T11:04:31.754Z,2.20
2023-03-12T11:14:53.455Z,2.26
2023-03-12T11:25:29.591Z,2.36
2023-03-12T11:35:53.744Z,2.47
2023-03-12T11:46:41.250Z,2.58
2023-03-12T11:57:15.155Z,2.68
2023-03-12T12:07:51.553Z,2.66
2023-03-12T12:18:28.368Z,2.73
2023-03-12T12:29:01.751Z,2.76
2023-03-12T12:39:38.865Z,2.80
2023-03-12T12:50:00.726Z,2.83
2023-03-12T13:00:55.778Z,2.83
2023-03-12T13:11:20.578Z,2.79
2023-03-12T13:22:21.653Z,2.79
2023-03-12T13:33:07.006Z,2.74
2023-03-12T13:43:40.374Z,2.73
2023-03-12T13:54:03.377Z,2.76
2023-03-12T14:04:31.098Z,2.79
2023-03-12T14:14:58.000Z,2.78
2023-03-12T14:25:37.407Z,2.81
2023-03-12T14:36:15.232Z,2.86
2023-03-12T14:46:36.346Z,2.93
2023-03-12T14:56:57.874Z,2.92
2023-03-12T15:07:33.970Z,2.91
2023-03-12T15:17:55.693Z,2.94
2023-03-12T15:28:18.454Z,2.92
2023-03-12T15:39:05.984Z,2.89
2023-03-12T15:49:30.572Z,2.85
2023-03-12T16:00:12.214Z,2.82
2023-03-12T16:10:35.385Z,2.78
2023-03-12T16:20:56.538Z,2.72
2023-03-12T16:31:17.852Z,2.69
2023-03-12T16:41:39.577Z,2.63
2023-03-12T16:52:00.573Z,2.60
2023-03-12T17:02:22.054Z,2.55
2023-03-12T17:12:44.151Z,2.54
2023-03-12T17:23:06.494Z,2.52
2023-03-12T17:33:27.512Z,2.49
2023-03-12T17:43:48.958Z,2.47
2023-03-12T17:54:10.114Z,2.44
2023-03-12T18:04:31.108Z,2.42
2023-03-12T18:14:52.391Z,2.40
2023-03-12T18:25:14.106Z,2.40
2023-03-12T18:35:35.386Z,2.41
2023-03-12T18:45:56.542Z,2.43
2023-03-12T18:56:17.664Z,2.45
2023-03-12T19:06:50.339Z,2.49
2023-03-12T19:17:12.822Z,2.48
2023-03-12T19:27:34.305Z,2.49
2023-03-12T19:37:56.146Z,2.53
2023-03-12T19:48:17.580Z,2.53
2023-03-12T19:58:38.505Z,2.55
2023-03-12T20:08:59.940Z,2.56
2023-03-12T20:19:21.504Z,2.55
2023-03-12T20:29:43.755Z,2.58
2023-03-12T20:40:06.186Z,2.59
2023-03-12T20:50:28.150Z,2.58
2023-03-12T21:00:49.128Z,2.62
2023-03-12T21:11:10.977Z,2.59
2023-03-12T21:21:35.387Z,2.59
2023-03-12T21:31:57.616Z,2.59
2023-03-12T21:42:19.286Z,2.59
2023-03-12T21:52:43.555Z,2.57
2023-03-12T22:03:05.110Z,2.56
2023-03-12T22:13:26.670Z,2.56
2023-03-12T22:23:51.244Z,2.57
2023-03-12T22:34:12.513Z,2.57
2023-03-12T22:44:33.718Z,2.58
2023-03-12T22:54:54.849Z,2.58
2023-03-12T23:05:16.392Z,2.57
2023-03-12T23:15:41.465Z,2.56
2023-03-12T23:26:03.658Z,2.58
2023-03-12T23:36:24.832Z,2.57
2023-03-12T23:46:45.754Z,2.57
2023-03-12T23:57:07.125Z,2.57
